sensor_id;sensor_type;location;lat;lon;timestamp;P1;durP1;ratioP1;P2;durP2;ratioP2
32186;SDS011;18686;53.084;8.872;2023-04-03T00:01:17;2.25;;;1.42;;
32186;SDS011;18686;53.084;8.872;2023-04-03T00:03:46;5.07;;;1.70;;
32186;SDS011;18686;53.084;8.872;2023-04-03T00:06:14;4.13;;;1.63;;
32186;SDS011;18686;53.084;8.872;2023-04-03T00:08:42;2.75;;;1.30;;
32186;SDS011;18686;53.084;8.872;2023-04-03T00:11:11;3.90;;;1.70;;
32186;SDS011;18686;53.084;8.872;2023-04-03T00:13:39;5.85;;;2.10;;
32186;SDS011;18686;53.084;8.872;2023-04-03T00:16:10;4.97;;;1.63;;
32186;SDS011;18686;53.084;8.872;2023-04-03T00:18:39;2.97;;;1.48;;
32186;SDS011;18686;53.084;8.872;2023-04-03T00:21:07;3.75;;;1.80;;
32186;SDS011;18686;53.084;8.872;2023-04-03T00:23:37;4.47;;;2.03;;
32186;SDS011;18686;53.084;8.872;2023-04-03T00:26:05;4.57;;;1.60;;
32186;SDS011;18686;53.084;8.872;2023-04-03T00:28:33;2.10;;;1.50;;
32186;SDS011;18686;53.084;8.872;2023-04-03T00:31:02;3.97;;;1.60;;
32186;SDS011;18686;53.084;8.872;2023-04-03T00:33:32;3.10;;;1.75;;
32186;SDS011;18686;53.084;8.872;2023-04-03T00:36:04;3.17;;;1.80;;
32186;SDS011;18686;53.084;8.872;2023-04-03T00:38:34;3.25;;;1.88;;
32186;SDS011;18686;53.084;8.872;2023-04-03T00:41:02;4.88;;;2.08;;
32186;SDS011;18686;53.084;8.872;2023-04-03T00:43:31;4.25;;;2.00;;
32186;SDS011;18686;53.084;8.872;2023-04-03T00:45:59;3.58;;;1.50;;
32186;SDS011;18686;53.084;8.872;2023-04-03T00:48:29;5.80;;;1.65;;
32186;SDS011;18686;53.084;8.872;2023-04-03T00:51:01;3.33;;;2.00;;
32186;SDS011;18686;53.084;8.872;2023-04-03T00:53:32;3.80;;;1.75;;
32186;SDS011;18686;53.084;8.872;2023-04-03T00:56:04;4.80;;;1.75;;
32186;SDS011;18686;53.084;8.872;2023-04-03T00:58:37;6.32;;;2.20;;
32186;SDS011;18686;53.084;8.872;2023-04-03T01:01:11;5.45;;;2.10;;
32186;SDS011;18686;53.084;8.872;2023-04-03T01:03:43;5.50;;;1.95;;
32186;SDS011;18686;53.084;8.872;2023-04-03T01:06:11;4.32;;;1.90;;
32186;SDS011;18686;53.084;8.872;2023-04-03T01:08:45;2.70;;;1.55;;
32186;SDS011;18686;53.084;8.872;2023-04-03T01:11:17;5.30;;;1.80;;
32186;SDS011;18686;53.084;8.872;2023-04-03T01:13:48;4.28;;;1.88;;
32186;SDS011;18686;53.084;8.872;2023-04-03T01:16:16;5.75;;;2.05;;
32186;SDS011;18686;53.084;8.872;2023-04-03T01:18:47;4.80;;;1.70;;
32186;SDS011;18686;53.084;8.872;2023-04-03T01:24:25;3.90;;;2.00;;
32186;SDS011;18686;53.084;8.872;2023-04-03T01:27:03;7.72;;;2.17;;
32186;SDS011;18686;53.084;8.872;2023-04-03T01:29:33;4.70;;;2.30;;
32186;SDS011;18686;53.084;8.872;2023-04-03T01:32:03;7.68;;;2.40;;
32186;SDS011;18686;53.084;8.872;2023-04-03T01:34:31;3.88;;;1.85;;
32186;SDS011;18686;53.084;8.872;2023-04-03T01:37:00;4.00;;;1.92;;
32186;SDS011;18686;53.084;8.872;2023-04-03T01:39:28;5.63;;;2.22;;
32186;SDS011;18686;53.084;8.872;2023-04-03T01:41:56;4.85;;;2.15;;
32186;SDS011;18686;53.084;8.872;2023-04-03T01:44:30;9.07;;;2.42;;
32186;SDS011;18686;53.084;8.872;2023-04-03T01:46:59;4.78;;;2.40;;
32186;SDS011;18686;53.084;8.872;2023-04-03T01:49:29;4.70;;;1.95;;
32186;SDS011;18686;53.084;8.872;2023-04-03T01:51:57;6.65;;;2.15;;
32186;SDS011;18686;53.084;8.872;2023-04-03T01:54:26;3.55;;;1.80;;
32186;SDS011;18686;53.084;8.872;2023-04-03T01:56:54;8.18;;;2.88;;
32186;SDS011;18686;53.084;8.872;2023-04-03T01:59:22;6.30;;;2.40;;
32186;SDS011;18686;53.084;8.872;2023-04-03T02:01:51;5.30;;;2.20;;
32186;SDS011;18686;53.084;8.872;2023-04-03T02:04:19;6.00;;;2.60;;
32186;SDS011;18686;53.084;8.872;2023-04-03T02:06:49;4.95;;;2.33;;
32186;SDS011;18686;53.084;8.872;2023-04-03T02:09:17;6.32;;;2.03;;
32186;SDS011;18686;53.084;8.872;2023-04-03T02:11:45;7.45;;;2.15;;
32186;SDS011;18686;53.084;8.872;2023-04-03T02:14:13;4.63;;;2.13;;
32186;SDS011;18686;53.084;8.872;2023-04-03T02:16:41;4.60;;;1.77;;
32186;SDS011;18686;53.084;8.872;2023-04-03T02:19:10;8.88;;;3.30;;
32186;SDS011;18686;53.084;8.872;2023-04-03T02:21:38;5.20;;;2.03;;
32186;SDS011;18686;53.084;8.872;2023-04-03T02:24:08;4.03;;;1.92;;
32186;SDS011;18686;53.084;8.872;2023-04-03T02:26:36;6.30;;;2.08;;
32186;SDS011;18686;53.084;8.872;2023-04-03T02:29:04;5.28;;;2.35;;
32186;SDS011;18686;53.084;8.872;2023-04-03T02:31:34;6.18;;;2.20;;
32186;SDS011;18686;53.084;8.872;2023-04-03T02:34:03;7.57;;;2.55;;
32186;SDS011;18686;53.084;8.872;2023-04-03T02:36:33;5.30;;;2.17;;
32186;SDS011;18686;53.084;8.872;2023-04-03T02:39:04;5.63;;;2.40;;
32186;SDS011;18686;53.084;8.872;2023-04-03T02:41:35;6.22;;;2.30;;
32186;SDS011;18686;53.084;8.872;2023-04-03T02:44:10;5.43;;;2.53;;
32186;SDS011;18686;53.084;8.872;2023-04-03T02:46:39;7.53;;;2.58;;
32186;SDS011;18686;53.084;8.872;2023-04-03T02:49:07;5.15;;;2.05;;
32186;SDS011;18686;53.084;8.872;2023-04-03T02:51:35;6.82;;;2.78;;
32186;SDS011;18686;53.084;8.872;2023-04-03T02:54:04;6.85;;;2.42;;
32186;SDS011;18686;53.084;8.872;2023-04-03T02:56:36;7.00;;;2.25;;
32186;SDS011;18686;53.084;8.872;2023-04-03T02:59:04;5.65;;;2.45;;
32186;SDS011;18686;53.084;8.872;2023-04-03T03:01:35;4.55;;;2.17;;
32186;SDS011;18686;53.084;8.872;2023-04-03T03:04:03;6.35;;;2.33;;
32186;SDS011;18686;53.084;8.872;2023-04-03T03:06:31;6.63;;;2.20;;
32186;SDS011;18686;53.084;8.872;2023-04-03T03:09:00;7.43;;;2.30;;
32186;SDS011;18686;53.084;8.872;2023-04-03T03:11:28;6.13;;;2.40;;
32186;SDS011;18686;53.084;8.872;2023-04-03T03:13:58;5.47;;;2.40;;
32186;SDS011;18686;53.084;8.872;2023-04-03T03:16:26;6.78;;;1.95;;
32186;SDS011;18686;53.084;8.872;2023-04-03T03:18:55;5.70;;;2.22;;
32186;SDS011;18686;53.084;8.872;2023-04-03T03:21:24;5.65;;;1.92;;
32186;SDS011;18686;53.084;8.872;2023-04-03T03:23:52;6.35;;;2.60;;
32186;SDS011;18686;53.084;8.872;2023-04-03T03:26:21;6.22;;;2.65;;
32186;SDS011;18686;53.084;8.872;2023-04-03T03:28:50;9.43;;;2.67;;
32186;SDS011;18686;53.084;8.872;2023-04-03T03:31:19;7.70;;;2.45;;
32186;SDS011;18686;53.084;8.872;2023-04-03T03:33:48;6.65;;;2.50;;
32186;SDS011;18686;53.084;8.872;2023-04-03T03:36:16;4.70;;;1.85;;
32186;SDS011;18686;53.084;8.872;2023-04-03T03:38:44;6.22;;;2.40;;
32186;SDS011;18686;53.084;8.872;2023-04-03T03:41:12;6.75;;;2.30;;
32186;SDS011;18686;53.084;8.872;2023-04-03T03:43:42;7.40;;;2.20;;
32186;SDS011;18686;53.084;8.872;2023-04-03T03:46:13;7.68;;;2.63;;
32186;SDS011;18686;53.084;8.872;2023-04-03T03:48:42;6.63;;;2.38;;
32186;SDS011;18686;53.084;8.872;2023-04-03T03:51:11;3.67;;;1.80;;
32186;SDS011;18686;53.084;8.872;2023-04-03T03:53:39;7.45;;;2.55;;
32186;SDS011;18686;53.084;8.872;2023-04-03T03:56:12;6.05;;;2.17;;
32186;SDS011;18686;53.084;8.872;2023-04-03T03:58:41;8.20;;;2.63;;
32186;SDS011;18686;53.084;8.872;2023-04-03T04:01:09;8.65;;;2.47;;
32186;SDS011;18686;53.084;8.872;2023-04-03T04:03:43;3.42;;;1.67;;
32186;SDS011;18686;53.084;8.872;2023-04-03T04:06:16;6.05;;;2.20;;
32186;SDS011;18686;53.084;8.872;2023-04-03T04:08:44;6.03;;;1.90;;
32186;SDS011;18686;53.084;8.872;2023-04-03T04:11:14;6.85;;;2.20;;
32186;SDS011;18686;53.084;8.872;2023-04-03T04:13:44;5.15;;;2.15;;
32186;SDS011;18686;53.084;8.872;2023-04-03T04:16:14;5.40;;;1.98;;
32186;SDS011;18686;53.084;8.872;2023-04-03T04:18:44;8.45;;;2.38;;
32186;SDS011;18686;53.084;8.872;2023-04-03T04:21:13;5.85;;;2.22;;
32186;SDS011;18686;53.084;8.872;2023-04-03T04:23:41;5.07;;;2.35;;
32186;SDS011;18686;53.084;8.872;2023-04-03T04:26:10;7.32;;;2.20;;
32186;SDS011;18686;53.084;8.872;2023-04-03T04:28:39;4.93;;;2.25;;
32186;SDS011;18686;53.084;8.872;2023-04-03T04:31:07;7.00;;;2.45;;
32186;SDS011;18686;53.084;8.872;2023-04-03T04:33:36;6.85;;;2.33;;
32186;SDS011;18686;53.084;8.872;2023-04-03T04:36:07;8.32;;;2.42;;
32186;SDS011;18686;53.084;8.872;2023-04-03T04:38:36;8.43;;;2.70;;
32186;SDS011;18686;53.084;8.872;2023-04-03T04:41:05;9.18;;;2.92;;
32186;SDS011;18686;53.084;8.872;2023-04-03T04:43:34;8.57;;;2.17;;
32186;SDS011;18686;53.084;8.872;2023-04-03T04:46:04;11.68;;;2.70;;
32186;SDS011;18686;53.084;8.872;2023-04-03T04:48:38;6.20;;;2.40;;
32186;SDS011;18686;53.084;8.872;2023-04-03T04:51:09;4.55;;;2.13;;
32186;SDS011;18686;53.084;8.872;2023-04-03T04:53:38;7.75;;;2.53;;
32186;SDS011;18686;53.084;8.872;2023-04-03T04:56:08;6.55;;;2.70;;
32186;SDS011;18686;53.084;8.872;2023-04-03T04:58:38;4.10;;;2.30;;
32186;SDS011;18686;53.084;8.872;2023-04-03T05:01:08;9.80;;;2.90;;
32186;SDS011;18686;53.084;8.872;2023-04-03T05:03:46;5.05;;;2.80;;
32186;SDS011;18686;53.084;8.872;2023-04-03T05:06:17;8.43;;;2.83;;
32186;SDS011;18686;53.084;8.872;2023-04-03T05:08:46;9.15;;;2.78;;
32186;SDS011;18686;53.084;8.872;2023-04-03T05:11:15;5.10;;;2.25;;
32186;SDS011;18686;53.084;8.872;2023-04-03T05:13:46;6.95;;;2.05;;
32186;SDS011;18686;53.084;8.872;2023-04-03T05:16:14;6.45;;;2.28;;
32186;SDS011;18686;53.084;8.872;2023-04-03T05:18:43;4.95;;;2.20;;
32186;SDS011;18686;53.084;8.872;2023-04-03T05:21:18;3.42;;;2.05;;
32186;SDS011;18686;53.084;8.872;2023-04-03T05:23:49;7.20;;;2.57;;
32186;SDS011;18686;53.084;8.872;2023-04-03T05:26:18;4.63;;;2.25;;
32186;SDS011;18686;53.084;8.872;2023-04-03T05:28:49;10.30;;;2.42;;
32186;SDS011;18686;53.084;8.872;2023-04-03T05:31:17;7.35;;;2.80;;
32186;SDS011;18686;53.084;8.872;2023-04-03T05:33:46;7.32;;;2.70;;
32186;SDS011;18686;53.084;8.872;2023-04-03T05:36:18;7.45;;;3.10;;
32186;SDS011;18686;53.084;8.872;2023-04-03T05:38:52;8.70;;;2.38;;
32186;SDS011;18686;53.084;8.872;2023-04-03T05:41:23;6.05;;;2.92;;
32186;SDS011;18686;53.084;8.872;2023-04-03T05:43:51;7.65;;;3.08;;
32186;SDS011;18686;53.084;8.872;2023-04-03T05:46:22;7.72;;;2.30;;
32186;SDS011;18686;53.084;8.872;2023-04-03T05:48:54;6.82;;;2.40;;
32186;SDS011;18686;53.084;8.872;2023-04-03T05:51:28;6.82;;;2.33;;
32186;SDS011;18686;53.084;8.872;2023-04-03T05:54:06;5.47;;;2.65;;
32186;SDS011;18686;53.084;8.872;2023-04-03T05:56:39;5.30;;;2.30;;
32186;SDS011;18686;53.084;8.872;2023-04-03T05:59:08;6.65;;;2.33;;
32186;SDS011;18686;53.084;8.872;2023-04-03T06:01:36;4.95;;;1.98;;
32186;SDS011;18686;53.084;8.872;2023-04-03T06:04:05;7.13;;;2.55;;
32186;SDS011;18686;53.084;8.872;2023-04-03T06:06:44;6.15;;;2.60;;
32186;SDS011;18686;53.084;8.872;2023-04-03T06:09:14;7.10;;;2.47;;
32186;SDS011;18686;53.084;8.872;2023-04-03T06:11:43;10.38;;;2.85;;
32186;SDS011;18686;53.084;8.872;2023-04-03T06:14:13;4.60;;;2.20;;
32186;SDS011;18686;53.084;8.872;2023-04-03T06:16:41;4.80;;;2.42;;
32186;SDS011;18686;53.084;8.872;2023-04-03T06:19:10;8.55;;;2.40;;
32186;SDS011;18686;53.084;8.872;2023-04-03T06:21:46;7.70;;;2.28;;
32186;SDS011;18686;53.084;8.872;2023-04-03T06:24:15;5.88;;;1.90;;
32186;SDS011;18686;53.084;8.872;2023-04-03T06:26:44;6.55;;;2.38;;
32186;SDS011;18686;53.084;8.872;2023-04-03T06:29:12;6.68;;;2.45;;
32186;SDS011;18686;53.084;8.872;2023-04-03T06:31:40;5.00;;;1.95;;
32186;SDS011;18686;53.084;8.872;2023-04-03T06:34:09;4.03;;;1.90;;
32186;SDS011;18686;53.084;8.872;2023-04-03T06:36:38;6.07;;;2.42;;
32186;SDS011;18686;53.084;8.872;2023-04-03T06:39:08;8.52;;;2.42;;
32186;SDS011;18686;53.084;8.872;2023-04-03T06:41:39;5.70;;;1.95;;
32186;SDS011;18686;53.084;8.872;2023-04-03T06:44:07;5.68;;;2.15;;
32186;SDS011;18686;53.084;8.872;2023-04-03T06:46:37;6.60;;;2.00;;
32186;SDS011;18686;53.084;8.872;2023-04-03T06:49:06;7.00;;;2.10;;
32186;SDS011;18686;53.084;8.872;2023-04-03T06:51:36;5.00;;;1.80;;
32186;SDS011;18686;53.084;8.872;2023-04-03T06:54:04;8.23;;;2.03;;
32186;SDS011;18686;53.084;8.872;2023-04-03T06:56:36;6.13;;;1.88;;
32186;SDS011;18686;53.084;8.872;2023-04-03T06:59:04;6.35;;;1.75;;
32186;SDS011;18686;53.084;8.872;2023-04-03T07:01:35;6.07;;;1.80;;
32186;SDS011;18686;53.084;8.872;2023-04-03T07:04:03;4.72;;;1.33;;
32186;SDS011;18686;53.084;8.872;2023-04-03T07:06:32;7.25;;;2.00;;
32186;SDS011;18686;53.084;8.872;2023-04-03T07:09:00;5.07;;;1.70;;
32186;SDS011;18686;53.084;8.872;2023-04-03T07:11:29;5.60;;;1.63;;
32186;SDS011;18686;53.084;8.872;2023-04-03T07:13:59;4.90;;;1.42;;
32186;SDS011;18686;53.084;8.872;2023-04-03T07:16:27;3.67;;;1.30;;
32186;SDS011;18686;53.084;8.872;2023-04-03T07:18:57;4.35;;;1.30;;
32186;SDS011;18686;53.084;8.872;2023-04-03T07:21:25;5.13;;;1.25;;
32186;SDS011;18686;53.084;8.872;2023-04-03T07:23:54;7.38;;;1.75;;
32186;SDS011;18686;53.084;8.872;2023-04-03T07:26:22;8.45;;;1.65;;
32186;SDS011;18686;53.084;8.872;2023-04-03T07:28:52;4.65;;;1.48;;
32186;SDS011;18686;53.084;8.872;2023-04-03T07:31:21;4.57;;;1.38;;
32186;SDS011;18686;53.084;8.872;2023-04-03T07:33:49;6.03;;;1.42;;
32186;SDS011;18686;53.084;8.872;2023-04-03T07:36:19;4.30;;;1.27;;
32186;SDS011;18686;53.084;8.872;2023-04-03T07:38:48;3.50;;;1.17;;
32186;SDS011;18686;53.084;8.872;2023-04-03T07:41:17;6.63;;;1.50;;
32186;SDS011;18686;53.084;8.872;2023-04-03T07:43:48;3.25;;;1.33;;
32186;SDS011;18686;53.084;8.872;2023-04-03T07:46:17;3.78;;;0.90;;
32186;SDS011;18686;53.084;8.872;2023-04-03T07:48:46;4.07;;;1.30;;
32186;SDS011;18686;53.084;8.872;2023-04-03T07:51:15;6.90;;;1.20;;
32186;SDS011;18686;53.084;8.872;2023-04-03T07:53:43;3.03;;;1.02;;
32186;SDS011;18686;53.084;8.872;2023-04-03T07:56:11;4.75;;;1.15;;
32186;SDS011;18686;53.084;8.872;2023-04-03T07:58:40;4.80;;;1.30;;
32186;SDS011;18686;53.084;8.872;2023-04-03T08:01:08;3.00;;;1.25;;
32186;SDS011;18686;53.084;8.872;2023-04-03T08:03:37;3.55;;;1.23;;
32186;SDS011;18686;53.084;8.872;2023-04-03T08:06:08;4.43;;;1.05;;
32186;SDS011;18686;53.084;8.872;2023-04-03T08:08:41;3.38;;;0.90;;
32186;SDS011;18686;53.084;8.872;2023-04-03T08:11:10;3.83;;;1.17;;
32186;SDS011;18686;53.084;8.872;2023-04-03T08:13:39;5.25;;;1.00;;
32186;SDS011;18686;53.084;8.872;2023-04-03T08:16:08;3.15;;;1.00;;
32186;SDS011;18686;53.084;8.872;2023-04-03T08:18:38;3.17;;;0.90;;
32186;SDS011;18686;53.084;8.872;2023-04-03T08:21:08;2.17;;;0.73;;
32186;SDS011;18686;53.084;8.872;2023-04-03T08:23:37;1.55;;;0.70;;
32186;SDS011;18686;53.084;8.872;2023-04-03T08:26:08;2.53;;;1.20;;
32186;SDS011;18686;53.084;8.872;2023-04-03T08:28:37;2.90;;;1.00;;
32186;SDS011;18686;53.084;8.872;2023-04-03T08:31:06;2.45;;;0.88;;
32186;SDS011;18686;53.084;8.872;2023-04-03T08:33:37;4.28;;;1.10;;
32186;SDS011;18686;53.084;8.872;2023-04-03T08:36:14;4.15;;;0.95;;
32186;SDS011;18686;53.084;8.872;2023-04-03T08:38:45;1.67;;;0.65;;
32186;SDS011;18686;53.084;8.872;2023-04-03T08:41:14;3.05;;;0.82;;
32186;SDS011;18686;53.084;8.872;2023-04-03T08:43:53;3.93;;;0.97;;
32186;SDS011;18686;53.084;8.872;2023-04-03T08:46:28;4.00;;;0.85;;
32186;SDS011;18686;53.084;8.872;2023-04-03T08:49:06;4.47;;;0.68;;
32186;SDS011;18686;53.084;8.872;2023-04-03T08:51:46;2.15;;;0.98;;
32186;SDS011;18686;53.084;8.872;2023-04-03T08:54:21;3.15;;;0.90;;
32186;SDS011;18686;53.084;8.872;2023-04-03T08:56:53;3.03;;;0.65;;
32186;SDS011;18686;53.084;8.872;2023-04-03T08:59:24;2.72;;;0.60;;
32186;SDS011;18686;53.084;8.872;2023-04-03T09:01:57;3.58;;;0.63;;
32186;SDS011;18686;53.084;8.872;2023-04-03T09:04:28;1.83;;;0.75;;
32186;SDS011;18686;53.084;8.872;2023-04-03T09:07:02;3.17;;;0.88;;
32186;SDS011;18686;53.084;8.872;2023-04-03T09:09:35;2.70;;;1.00;;
32186;SDS011;18686;53.084;8.872;2023-04-03T09:12:12;1.90;;;0.80;;
32186;SDS011;18686;53.084;8.872;2023-04-03T09:14:46;2.13;;;0.93;;
32186;SDS011;18686;53.084;8.872;2023-04-03T09:17:26;2.05;;;1.15;;
32186;SDS011;18686;53.084;8.872;2023-04-03T09:20:07;2.63;;;1.10;;
32186;SDS011;18686;53.084;8.872;2023-04-03T09:22:48;3.33;;;1.02;;
32186;SDS011;18686;53.084;8.872;2023-04-03T09:25:20;2.58;;;0.77;;
32186;SDS011;18686;53.084;8.872;2023-04-03T09:27:50;2.33;;;1.10;;
32186;SDS011;18686;53.084;8.872;2023-04-03T09:30:20;1.30;;;0.60;;
32186;SDS011;18686;53.084;8.872;2023-04-03T09:32:51;2.35;;;0.80;;
32186;SDS011;18686;53.084;8.872;2023-04-03T09:35:23;2.15;;;0.57;;
32186;SDS011;18686;53.084;8.872;2023-04-03T09:38:17;2.20;;;0.80;;
32186;SDS011;18686;53.084;8.872;2023-04-03T09:40:48;2.88;;;0.90;;
32186;SDS011;18686;53.084;8.872;2023-04-03T09:43:23;2.10;;;0.70;;
32186;SDS011;18686;53.084;8.872;2023-04-03T09:45:53;2.97;;;0.88;;
32186;SDS011;18686;53.084;8.872;2023-04-03T09:48:23;1.88;;;0.80;;
32186;SDS011;18686;53.084;8.872;2023-04-03T09:50:54;2.00;;;0.80;;
32186;SDS011;18686;53.084;8.872;2023-04-03T09:53:30;2.78;;;0.80;;
32186;SDS011;18686;53.084;8.872;2023-04-03T09:56:04;1.25;;;0.55;;
32186;SDS011;18686;53.084;8.872;2023-04-03T09:58:48;2.20;;;0.65;;
32186;SDS011;18686;53.084;8.872;2023-04-03T10:01:23;2.88;;;0.85;;
32186;SDS011;18686;53.084;8.872;2023-04-03T10:04:04;3.20;;;0.80;;
32186;SDS011;18686;53.084;8.872;2023-04-03T10:06:34;8.15;;;1.25;;
32186;SDS011;18686;53.084;8.872;2023-04-03T10:09:18;1.92;;;0.65;;
32186;SDS011;18686;53.084;8.872;2023-04-03T10:12:01;1.55;;;0.70;;
32186;SDS011;18686;53.084;8.872;2023-04-03T10:14:32;2.42;;;0.70;;
32186;SDS011;18686;53.084;8.872;2023-04-03T10:17:14;1.58;;;0.70;;
32186;SDS011;18686;53.084;8.872;2023-04-03T10:19:51;1.33;;;0.50;;
32186;SDS011;18686;53.084;8.872;2023-04-03T10:22:26;1.10;;;0.70;;
32186;SDS011;18686;53.084;8.872;2023-04-03T10:25:08;3.05;;;0.55;;
32186;SDS011;18686;53.084;8.872;2023-04-03T10:27:44;1.50;;;0.65;;
32186;SDS011;18686;53.084;8.872;2023-04-03T10:30:26;1.25;;;0.70;;
32186;SDS011;18686;53.084;8.872;2023-04-03T10:33:05;2.20;;;0.60;;
32186;SDS011;18686;53.084;8.872;2023-04-03T10:36:07;1.02;;;0.70;;
32186;SDS011;18686;53.084;8.872;2023-04-03T10:38:48;2.08;;;0.57;;
32186;SDS011;18686;53.084;8.872;2023-04-03T10:41:26;2.13;;;0.93;;
32186;SDS011;18686;53.084;8.872;2023-04-03T10:44:04;3.05;;;0.90;;
32186;SDS011;18686;53.084;8.872;2023-04-03T10:46:43;1.70;;;0.82;;
32186;SDS011;18686;53.084;8.872;2023-04-03T10:51:56;3.28;;;0.90;;
32186;SDS011;18686;53.084;8.872;2023-04-03T10:54:34;2.65;;;0.80;;
32186;SDS011;18686;53.084;8.872;2023-04-03T10:57:08;1.80;;;0.73;;
32186;SDS011;18686;53.084;8.872;2023-04-03T10:59:41;2.17;;;0.70;;
32186;SDS011;18686;53.084;8.872;2023-04-03T11:02:14;1.17;;;0.60;;
32186;SDS011;18686;53.084;8.872;2023-04-03T11:04:50;1.98;;;0.68;;
32186;SDS011;18686;53.084;8.872;2023-04-03T11:07:21;1.67;;;0.60;;
32186;SDS011;18686;53.084;8.872;2023-04-03T11:09:54;1.55;;;0.73;;
32186;SDS011;18686;53.084;8.872;2023-04-03T11:15:01;1.50;;;0.70;;
32186;SDS011;18686;53.084;8.872;2023-04-03T11:17:32;1.60;;;0.80;;
32186;SDS011;18686;53.084;8.872;2023-04-03T11:20:06;1.83;;;0.60;;
32186;SDS011;18686;53.084;8.872;2023-04-03T11:22:43;1.35;;;0.50;;
32186;SDS011;18686;53.084;8.872;2023-04-03T11:25:15;2.75;;;0.80;;
32186;SDS011;18686;53.084;8.872;2023-04-03T11:27:51;1.20;;;0.47;;
32186;SDS011;18686;53.084;8.872;2023-04-03T11:30:25;1.45;;;0.77;;
32186;SDS011;18686;53.084;8.872;2023-04-03T11:33:16;1.58;;;0.77;;
32186;SDS011;18686;53.084;8.872;2023-04-03T11:35:57;2.20;;;0.80;;
32186;SDS011;18686;53.084;8.872;2023-04-03T11:38:38;1.65;;;0.68;;
32186;SDS011;18686;53.084;8.872;2023-04-03T11:41:25;1.52;;;0.90;;
32186;SDS011;18686;53.084;8.872;2023-04-03T11:43:57;2.40;;;0.70;;
32186;SDS011;18686;53.084;8.872;2023-04-03T11:58:13;2.28;;;0.93;;
32186;SDS011;18686;53.084;8.872;2023-04-03T12:00:50;3.83;;;0.98;;
32186;SDS011;18686;53.084;8.872;2023-04-03T12:12:58;1.23;;;0.70;;
32186;SDS011;18686;53.084;8.872;2023-04-03T12:21:22;2.40;;;1.00;;
32186;SDS011;18686;53.084;8.872;2023-04-03T12:23:59;1.92;;;0.98;;
32186;SDS011;18686;53.084;8.872;2023-04-03T12:26:34;0.80;;;0.70;;
32186;SDS011;18686;53.084;8.872;2023-04-03T12:29:15;1.40;;;0.90;;
32186;SDS011;18686;53.084;8.872;2023-04-03T12:31:52;1.35;;;0.80;;
32186;SDS011;18686;53.084;8.872;2023-04-03T12:34:46;1.88;;;0.90;;
32186;SDS011;18686;53.084;8.872;2023-04-03T12:37:29;2.78;;;0.90;;
32186;SDS011;18686;53.084;8.872;2023-04-03T12:40:15;2.55;;;1.05;;
32186;SDS011;18686;53.084;8.872;2023-04-03T12:42:55;2.80;;;0.80;;
32186;SDS011;18686;53.084;8.872;2023-04-03T12:45:43;1.23;;;0.63;;
32186;SDS011;18686;53.084;8.872;2023-04-03T12:48:15;2.03;;;0.88;;
32186;SDS011;18686;53.084;8.872;2023-04-03T12:50:46;3.10;;;0.90;;
32186;SDS011;18686;53.084;8.872;2023-04-03T12:53:16;2.03;;;0.75;;
32186;SDS011;18686;53.084;8.872;2023-04-03T12:55:46;1.40;;;0.65;;
32186;SDS011;18686;53.084;8.872;2023-04-03T12:58:15;1.45;;;0.80;;
32186;SDS011;18686;53.084;8.872;2023-04-03T13:00:58;1.42;;;0.90;;
32186;SDS011;18686;53.084;8.872;2023-04-03T13:03:28;1.75;;;0.98;;
32186;SDS011;18686;53.084;8.872;2023-04-03T13:06:00;1.10;;;0.70;;
32186;SDS011;18686;53.084;8.872;2023-04-03T13:08:30;1.67;;;0.90;;
32186;SDS011;18686;53.084;8.872;2023-04-03T13:10:59;1.38;;;0.70;;
32186;SDS011;18686;53.084;8.872;2023-04-03T13:13:30;0.80;;;0.67;;
32186;SDS011;18686;53.084;8.872;2023-04-03T13:15:59;2.22;;;1.00;;
32186;SDS011;18686;53.084;8.872;2023-04-03T13:18:28;1.63;;;1.00;;
32186;SDS011;18686;53.084;8.872;2023-04-03T13:21:01;4.00;;;1.10;;
32186;SDS011;18686;53.084;8.872;2023-04-03T13:23:32;1.95;;;0.65;;
32186;SDS011;18686;53.084;8.872;2023-04-03T13:26:03;1.10;;;1.00;;
32186;SDS011;18686;53.084;8.872;2023-04-03T13:28:33;2.88;;;0.77;;
32186;SDS011;18686;53.084;8.872;2023-04-03T13:31:04;1.75;;;0.80;;
32186;SDS011;18686;53.084;8.872;2023-04-03T13:33:36;3.80;;;1.20;;
32186;SDS011;18686;53.084;8.872;2023-04-03T13:36:08;2.45;;;0.80;;
32186;SDS011;18686;53.084;8.872;2023-04-03T13:38:44;1.30;;;0.70;;
32186;SDS011;18686;53.084;8.872;2023-04-03T13:44:14;2.53;;;0.98;;
32186;SDS011;18686;53.084;8.872;2023-04-03T13:46:44;1.65;;;0.82;;
32186;SDS011;18686;53.084;8.872;2023-04-03T13:49:22;2.33;;;1.10;;
32186;SDS011;18686;53.084;8.872;2023-04-03T13:52:00;3.22;;;0.95;;
32186;SDS011;18686;53.084;8.872;2023-04-03T13:54:46;2.50;;;1.05;;
32186;SDS011;18686;53.084;8.872;2023-04-03T13:57:19;3.50;;;1.10;;
32186;SDS011;18686;53.084;8.872;2023-04-03T13:59:47;2.65;;;1.30;;
32186;SDS011;18686;53.084;8.872;2023-04-03T14:02:17;2.55;;;0.98;;
32186;SDS011;18686;53.084;8.872;2023-04-03T14:04:50;2.60;;;1.38;;
32186;SDS011;18686;53.084;8.872;2023-04-03T14:07:24;2.17;;;0.95;;
32186;SDS011;18686;53.084;8.872;2023-04-03T14:09:52;2.20;;;1.30;;
32186;SDS011;18686;53.084;8.872;2023-04-03T14:12:26;4.47;;;1.15;;
32186;SDS011;18686;53.084;8.872;2023-04-03T14:14:58;3.15;;;1.25;;
32186;SDS011;18686;53.084;8.872;2023-04-03T14:17:28;2.63;;;1.20;;
32186;SDS011;18686;53.084;8.872;2023-04-03T14:19:58;2.45;;;0.95;;
32186;SDS011;18686;53.084;8.872;2023-04-03T14:22:30;2.53;;;0.98;;
32186;SDS011;18686;53.084;8.872;2023-04-03T14:25:00;1.95;;;1.00;;
32186;SDS011;18686;53.084;8.872;2023-04-03T14:27:29;2.42;;;1.35;;
32186;SDS011;18686;53.084;8.872;2023-04-03T14:30:00;2.72;;;1.17;;
32186;SDS011;18686;53.084;8.872;2023-04-03T14:32:30;2.40;;;1.00;;
32186;SDS011;18686;53.084;8.872;2023-04-03T14:34:58;3.75;;;1.38;;
32186;SDS011;18686;53.084;8.872;2023-04-03T14:37:29;5.43;;;1.17;;
32186;SDS011;18686;53.084;8.872;2023-04-03T14:39:59;3.58;;;1.48;;
32186;SDS011;18686;53.084;8.872;2023-04-03T14:42:28;3.67;;;1.50;;
32186;SDS011;18686;53.084;8.872;2023-04-03T14:44:59;2.50;;;1.00;;
32186;SDS011;18686;53.084;8.872;2023-04-03T14:47:29;2.85;;;1.27;;
32186;SDS011;18686;53.084;8.872;2023-04-03T14:49:58;2.67;;;1.27;;
32186;SDS011;18686;53.084;8.872;2023-04-03T14:52:30;3.90;;;1.15;;
32186;SDS011;18686;53.084;8.872;2023-04-03T14:55:00;4.93;;;1.13;;
32186;SDS011;18686;53.084;8.872;2023-04-03T14:57:30;3.40;;;1.17;;
32186;SDS011;18686;53.084;8.872;2023-04-03T14:59:59;3.00;;;1.08;;
32186;SDS011;18686;53.084;8.872;2023-04-03T15:02:29;2.60;;;1.38;;
32186;SDS011;18686;53.084;8.872;2023-04-03T15:05:01;3.60;;;1.63;;
32186;SDS011;18686;53.084;8.872;2023-04-03T15:07:32;3.95;;;1.05;;
32186;SDS011;18686;53.084;8.872;2023-04-03T15:10:05;3.83;;;1.10;;
32186;SDS011;18686;53.084;8.872;2023-04-03T15:12:42;1.75;;;0.90;;
32186;SDS011;18686;53.084;8.872;2023-04-03T15:15:12;1.52;;;1.02;;
32186;SDS011;18686;53.084;8.872;2023-04-03T15:17:40;1.88;;;0.93;;
32186;SDS011;18686;53.084;8.872;2023-04-03T15:20:11;4.90;;;1.20;;
32186;SDS011;18686;53.084;8.872;2023-04-03T15:22:42;2.78;;;0.90;;
32186;SDS011;18686;53.084;8.872;2023-04-03T15:25:10;2.13;;;0.90;;
32186;SDS011;18686;53.084;8.872;2023-04-03T15:27:39;6.57;;;1.70;;
32186;SDS011;18686;53.084;8.872;2023-04-03T15:30:10;2.67;;;1.50;;
32186;SDS011;18686;53.084;8.872;2023-04-03T15:32:42;3.67;;;1.30;;
32186;SDS011;18686;53.084;8.872;2023-04-03T15:35:10;2.83;;;1.23;;
32186;SDS011;18686;53.084;8.872;2023-04-03T15:37:38;3.97;;;1.83;;
32186;SDS011;18686;53.084;8.872;2023-04-03T15:40:08;4.88;;;1.40;;
32186;SDS011;18686;53.084;8.872;2023-04-03T15:42:37;2.53;;;1.17;;
32186;SDS011;18686;53.084;8.872;2023-04-03T15:45:06;3.72;;;1.40;;
32186;SDS011;18686;53.084;8.872;2023-04-03T15:47:35;3.03;;;1.10;;
32186;SDS011;18686;53.084;8.872;2023-04-03T15:50:04;3.30;;;1.17;;
32186;SDS011;18686;53.084;8.872;2023-04-03T15:52:34;1.85;;;1.10;;